sensor_id;sensor_type;location;lat;lon;timestamp;P1;durP1;ratioP1;P2;durP2;ratioP2
37241;SDS011;23135;51.078;12.108;2022-12-07T00:00:53;9.05;;;3.83;;
37241;SDS011;23135;51.078;12.108;2022-12-07T00:03:19;11.25;;;5.72;;
37241;SDS011;23135;51.078;12.108;2022-12-07T00:05:45;10.98;;;5.07;;
37241;SDS011;23135;51.078;12.108;2022-12-07T00:08:11;10.32;;;4.93;;
37241;SDS011;23135;51.078;12.108;2022-12-07T00:10:36;7.18;;;3.75;;
37241;SDS011;23135;51.078;12.108;2022-12-07T00:13:02;13.15;;;6.55;;
37241;SDS011;23135;51.078;12.108;2022-12-07T00:15:27;11.90;;;5.18;;
37241;SDS011;23135;51.078;12.108;2022-12-07T00:17:53;9.80;;;4.50;;
37241;SDS011;23135;51.078;12.108;2022-12-07T00:20:18;9.27;;;5.45;;
37241;SDS011;23135;51.078;12.108;2022-12-07T00:22:44;9.48;;;5.05;;
37241;SDS011;23135;51.078;12.108;2022-12-07T00:25:10;12.10;;;6.25;;
37241;SDS011;23135;51.078;12.108;2022-12-07T00:27:35;10.98;;;5.97;;
37241;SDS011;23135;51.078;12.108;2022-12-07T00:30:01;9.82;;;5.50;;
37241;SDS011;23135;51.078;12.108;2022-12-07T00:32:27;15.40;;;5.40;;
37241;SDS011;23135;51.078;12.108;2022-12-07T00:34:52;11.30;;;5.57;;
37241;SDS011;23135;51.078;12.108;2022-12-07T00:37:18;10.38;;;4.72;;
37241;SDS011;23135;51.078;12.108;2022-12-07T00:39:45;8.30;;;4.63;;
37241;SDS011;23135;51.078;12.108;2022-12-07T00:42:11;11.70;;;5.85;;
37241;SDS011;23135;51.078;12.108;2022-12-07T00:44:36;12.60;;;5.68;;
37241;SDS011;23135;51.078;12.108;2022-12-07T00:47:02;10.93;;;5.35;;
37241;SDS011;23135;51.078;12.108;2022-12-07T00:49:28;10.57;;;5.47;;
37241;SDS011;23135;51.078;12.108;2022-12-07T00:51:53;8.80;;;4.32;;
37241;SDS011;23135;51.078;12.108;2022-12-07T00:54:19;10.20;;;4.88;;
37241;SDS011;23135;51.078;12.108;2022-12-07T00:56:45;8.80;;;4.75;;
37241;SDS011;23135;51.078;12.108;2022-12-07T00:59:12;9.10;;;4.45;;
37241;SDS011;23135;51.078;12.108;2022-12-07T01:01:41;11.48;;;5.65;;
37241;SDS011;23135;51.078;12.108;2022-12-07T01:04:06;9.38;;;4.25;;
37241;SDS011;23135;51.078;12.108;2022-12-07T01:06:32;17.02;;;5.85;;
37241;SDS011;23135;51.078;12.108;2022-12-07T01:08:58;10.45;;;5.20;;
37241;SDS011;23135;51.078;12.108;2022-12-07T01:11:25;10.90;;;4.95;;
37241;SDS011;23135;51.078;12.108;2022-12-07T01:13:52;11.43;;;5.72;;
37241;SDS011;23135;51.078;12.108;2022-12-07T01:16:20;12.48;;;5.93;;
37241;SDS011;23135;51.078;12.108;2022-12-07T01:18:47;8.73;;;4.40;;
37241;SDS011;23135;51.078;12.108;2022-12-07T01:21:19;10.45;;;4.85;;
37241;SDS011;23135;51.078;12.108;2022-12-07T01:23:46;11.07;;;4.97;;
37241;SDS011;23135;51.078;12.108;2022-12-07T01:26:13;9.48;;;4.32;;
37241;SDS011;23135;51.078;12.108;2022-12-07T01:28:40;10.20;;;5.30;;
37241;SDS011;23135;51.078;12.108;2022-12-07T01:31:08;8.77;;;4.82;;
37241;SDS011;23135;51.078;12.108;2022-12-07T01:33:40;9.65;;;4.63;;
37241;SDS011;23135;51.078;12.108;2022-12-07T01:36:08;11.75;;;4.57;;
37241;SDS011;23135;51.078;12.108;2022-12-07T01:38:48;11.27;;;4.75;;
37241;SDS011;23135;51.078;12.108;2022-12-07T01:41:19;11.90;;;5.47;;
37241;SDS011;23135;51.078;12.108;2022-12-07T01:46:52;9.02;;;4.32;;
37241;SDS011;23135;51.078;12.108;2022-12-07T01:52:13;10.98;;;5.13;;
37241;SDS011;23135;51.078;12.108;2022-12-07T01:54:52;12.98;;;5.80;;
37241;SDS011;23135;51.078;12.108;2022-12-07T01:57:22;11.52;;;5.40;;
37241;SDS011;23135;51.078;12.108;2022-12-07T01:59:48;10.25;;;5.15;;
37241;SDS011;23135;51.078;12.108;2022-12-07T02:02:23;9.32;;;4.90;;
37241;SDS011;23135;51.078;12.108;2022-12-07T02:04:52;10.02;;;4.22;;
37241;SDS011;23135;51.078;12.108;2022-12-07T02:07:20;10.93;;;4.47;;
37241;SDS011;23135;51.078;12.108;2022-12-07T02:09:48;9.60;;;4.47;;
37241;SDS011;23135;51.078;12.108;2022-12-07T02:12:13;10.98;;;6.18;;
37241;SDS011;23135;51.078;12.108;2022-12-07T02:14:39;10.65;;;4.82;;
37241;SDS011;23135;51.078;12.108;2022-12-07T02:22:24;13.68;;;5.60;;
37241;SDS011;23135;51.078;12.108;2022-12-07T02:30:44;10.98;;;4.40;;
37241;SDS011;23135;51.078;12.108;2022-12-07T02:33:18;10.27;;;4.80;;
37241;SDS011;23135;51.078;12.108;2022-12-07T02:35:53;10.90;;;4.68;;
37241;SDS011;23135;51.078;12.108;2022-12-07T02:38:26;14.65;;;5.43;;
37241;SDS011;23135;51.078;12.108;2022-12-07T02:41:13;10.90;;;4.85;;
37241;SDS011;23135;51.078;12.108;2022-12-07T02:43:46;9.82;;;3.92;;
37241;SDS011;23135;51.078;12.108;2022-12-07T02:46:17;9.20;;;4.88;;
37241;SDS011;23135;51.078;12.108;2022-12-07T02:48:47;8.48;;;4.63;;
37241;SDS011;23135;51.078;12.108;2022-12-07T02:51:14;10.35;;;5.00;;
37241;SDS011;23135;51.078;12.108;2022-12-07T02:53:43;10.55;;;5.25;;
37241;SDS011;23135;51.078;12.108;2022-12-07T03:01:42;8.60;;;4.57;;
37241;SDS011;23135;51.078;12.108;2022-12-07T03:07:04;8.77;;;4.85;;
37241;SDS011;23135;51.078;12.108;2022-12-07T03:09:38;6.32;;;3.00;;
37241;SDS011;23135;51.078;12.108;2022-12-07T03:12:22;11.45;;;5.15;;
37241;SDS011;23135;51.078;12.108;2022-12-07T03:15:03;8.68;;;4.07;;
37241;SDS011;23135;51.078;12.108;2022-12-07T03:17:33;8.75;;;3.72;;
37241;SDS011;23135;51.078;12.108;2022-12-07T03:20:04;6.85;;;3.75;;
37241;SDS011;23135;51.078;12.108;2022-12-07T03:22:33;9.45;;;5.03;;
37241;SDS011;23135;51.078;12.108;2022-12-07T03:25:04;7.82;;;3.95;;
37241;SDS011;23135;51.078;12.108;2022-12-07T03:27:37;8.27;;;4.05;;
37241;SDS011;23135;51.078;12.108;2022-12-07T03:30:08;12.25;;;3.75;;
37241;SDS011;23135;51.078;12.108;2022-12-07T03:32:41;10.43;;;3.80;;
37241;SDS011;23135;51.078;12.108;2022-12-07T03:37:43;7.70;;;3.08;;
37241;SDS011;23135;51.078;12.108;2022-12-07T03:42:42;8.23;;;3.80;;
37241;SDS011;23135;51.078;12.108;2022-12-07T03:45:08;6.90;;;3.75;;
37241;SDS011;23135;51.078;12.108;2022-12-07T03:47:37;3.90;;;1.77;;
37241;SDS011;23135;51.078;12.108;2022-12-07T03:50:33;6.45;;;3.00;;
37241;SDS011;23135;51.078;12.108;2022-12-07T03:53:08;6.00;;;2.63;;
37241;SDS011;23135;51.078;12.108;2022-12-07T03:55:54;13.13;;;2.97;;
37241;SDS011;23135;51.078;12.108;2022-12-07T03:58:21;4.93;;;2.58;;
37241;SDS011;23135;51.078;12.108;2022-12-07T04:00:48;5.63;;;2.80;;
37241;SDS011;23135;51.078;12.108;2022-12-07T04:03:15;5.95;;;2.58;;
37241;SDS011;23135;51.078;12.108;2022-12-07T04:05:41;3.95;;;2.55;;
37241;SDS011;23135;51.078;12.108;2022-12-07T04:08:07;4.28;;;2.80;;
37241;SDS011;23135;51.078;12.108;2022-12-07T04:10:33;4.80;;;2.70;;
37241;SDS011;23135;51.078;12.108;2022-12-07T04:12:59;4.55;;;2.58;;
37241;SDS011;23135;51.078;12.108;2022-12-07T04:15:25;6.03;;;2.30;;
37241;SDS011;23135;51.078;12.108;2022-12-07T04:17:51;5.63;;;2.47;;
37241;SDS011;23135;51.078;12.108;2022-12-07T04:20:16;6.07;;;2.85;;
37241;SDS011;23135;51.078;12.108;2022-12-07T04:22:42;5.90;;;3.42;;
37241;SDS011;23135;51.078;12.108;2022-12-07T04:25:07;5.35;;;2.13;;
37241;SDS011;23135;51.078;12.108;2022-12-07T04:27:33;5.50;;;2.53;;
37241;SDS011;23135;51.078;12.108;2022-12-07T04:29:59;8.50;;;2.95;;
37241;SDS011;23135;51.078;12.108;2022-12-07T04:32:24;3.55;;;1.90;;
37241;SDS011;23135;51.078;12.108;2022-12-07T04:34:50;5.93;;;2.72;;
37241;SDS011;23135;51.078;12.108;2022-12-07T04:37:16;5.90;;;2.30;;
37241;SDS011;23135;51.078;12.108;2022-12-07T04:39:42;5.00;;;2.42;;
37241;SDS011;23135;51.078;12.108;2022-12-07T04:42:09;3.63;;;1.52;;
37241;SDS011;23135;51.078;12.108;2022-12-07T04:44:36;7.25;;;2.80;;
37241;SDS011;23135;51.078;12.108;2022-12-07T04:47:02;4.57;;;2.17;;
37241;SDS011;23135;51.078;12.108;2022-12-07T04:49:27;4.90;;;2.10;;
37241;SDS011;23135;51.078;12.108;2022-12-07T04:51:53;5.00;;;2.05;;
37241;SDS011;23135;51.078;12.108;2022-12-07T04:54:19;2.25;;;1.08;;
37241;SDS011;23135;51.078;12.108;2022-12-07T04:56:45;6.72;;;2.20;;
37241;SDS011;23135;51.078;12.108;2022-12-07T04:59:11;3.72;;;2.13;;
37241;SDS011;23135;51.078;12.108;2022-12-07T05:01:37;3.92;;;1.63;;
37241;SDS011;23135;51.078;12.108;2022-12-07T05:04:03;3.92;;;2.00;;
37241;SDS011;23135;51.078;12.108;2022-12-07T05:06:29;4.95;;;2.38;;
37241;SDS011;23135;51.078;12.108;2022-12-07T05:08:54;5.40;;;2.92;;
37241;SDS011;23135;51.078;12.108;2022-12-07T05:11:20;4.10;;;2.80;;
37241;SDS011;23135;51.078;12.108;2022-12-07T05:14:05;3.45;;;2.22;;
37241;SDS011;23135;51.078;12.108;2022-12-07T05:16:39;3.60;;;1.83;;
37241;SDS011;23135;51.078;12.108;2022-12-07T05:19:06;3.80;;;2.17;;
37241;SDS011;23135;51.078;12.108;2022-12-07T05:21:32;4.13;;;2.63;;
37241;SDS011;23135;51.078;12.108;2022-12-07T05:23:58;4.72;;;2.55;;
37241;SDS011;23135;51.078;12.108;2022-12-07T05:26:23;5.00;;;2.60;;
37241;SDS011;23135;51.078;12.108;2022-12-07T05:28:50;4.78;;;2.53;;
37241;SDS011;23135;51.078;12.108;2022-12-07T05:31:17;5.72;;;2.97;;
37241;SDS011;23135;51.078;12.108;2022-12-07T05:33:42;5.65;;;2.78;;
37241;SDS011;23135;51.078;12.108;2022-12-07T05:36:08;4.72;;;2.53;;
37241;SDS011;23135;51.078;12.108;2022-12-07T05:38:34;8.48;;;4.22;;
37241;SDS011;23135;51.078;12.108;2022-12-07T05:41:00;6.97;;;3.75;;
37241;SDS011;23135;51.078;12.108;2022-12-07T05:43:27;5.25;;;3.03;;
37241;SDS011;23135;51.078;12.108;2022-12-07T05:45:53;6.68;;;3.90;;
37241;SDS011;23135;51.078;12.108;2022-12-07T05:48:19;5.95;;;4.22;;
37241;SDS011;23135;51.078;12.108;2022-12-07T05:50:47;7.13;;;4.30;;
37241;SDS011;23135;51.078;12.108;2022-12-07T05:53:13;7.82;;;4.45;;
37241;SDS011;23135;51.078;12.108;2022-12-07T05:55:38;8.80;;;5.32;;
37241;SDS011;23135;51.078;12.108;2022-12-07T05:58:04;8.65;;;4.40;;
37241;SDS011;23135;51.078;12.108;2022-12-07T06:00:48;15.23;;;5.53;;
37241;SDS011;23135;51.078;12.108;2022-12-07T06:03:14;10.88;;;6.72;;
37241;SDS011;23135;51.078;12.108;2022-12-07T06:05:40;10.05;;;5.68;;
37241;SDS011;23135;51.078;12.108;2022-12-07T06:08:06;9.25;;;5.25;;
37241;SDS011;23135;51.078;12.108;2022-12-07T06:10:32;9.98;;;5.32;;
37241;SDS011;23135;51.078;12.108;2022-12-07T06:12:58;14.85;;;6.30;;
37241;SDS011;23135;51.078;12.108;2022-12-07T06:15:24;15.63;;;6.93;;
37241;SDS011;23135;51.078;12.108;2022-12-07T06:17:49;11.38;;;6.38;;
37241;SDS011;23135;51.078;12.108;2022-12-07T06:20:15;12.35;;;7.53;;
37241;SDS011;23135;51.078;12.108;2022-12-07T06:22:40;11.93;;;6.50;;
37241;SDS011;23135;51.078;12.108;2022-12-07T06:25:06;15.23;;;7.78;;
37241;SDS011;23135;51.078;12.108;2022-12-07T06:27:32;11.85;;;6.45;;
37241;SDS011;23135;51.078;12.108;2022-12-07T06:29:58;12.25;;;7.03;;
37241;SDS011;23135;51.078;12.108;2022-12-07T06:32:24;11.02;;;6.32;;
37241;SDS011;23135;51.078;12.108;2022-12-07T06:34:49;14.32;;;7.55;;
37241;SDS011;23135;51.078;12.108;2022-12-07T06:37:15;14.63;;;8.05;;
37241;SDS011;23135;51.078;12.108;2022-12-07T06:39:41;14.80;;;7.00;;
37241;SDS011;23135;51.078;12.108;2022-12-07T06:42:07;15.63;;;8.38;;
37241;SDS011;23135;51.078;12.108;2022-12-07T06:44:33;12.68;;;7.78;;
37241;SDS011;23135;51.078;12.108;2022-12-07T06:46:58;17.63;;;8.48;;
37241;SDS011;23135;51.078;12.108;2022-12-07T06:49:24;13.73;;;7.32;;
37241;SDS011;23135;51.078;12.108;2022-12-07T06:51:49;16.02;;;8.27;;
37241;SDS011;23135;51.078;12.108;2022-12-07T06:54:15;15.93;;;7.82;;
37241;SDS011;23135;51.078;12.108;2022-12-07T06:56:41;15.07;;;7.47;;
37241;SDS011;23135;51.078;12.108;2022-12-07T06:59:07;18.88;;;8.57;;
37241;SDS011;23135;51.078;12.108;2022-12-07T07:01:33;14.13;;;8.07;;
37241;SDS011;23135;51.078;12.108;2022-12-07T07:04:00;15.38;;;7.82;;
37241;SDS011;23135;51.078;12.108;2022-12-07T07:06:26;14.80;;;7.65;;
37241;SDS011;23135;51.078;12.108;2022-12-07T07:08:52;15.07;;;8.48;;
37241;SDS011;23135;51.078;12.108;2022-12-07T07:11:18;19.00;;;8.55;;
37241;SDS011;23135;51.078;12.108;2022-12-07T07:13:44;16.85;;;9.38;;
37241;SDS011;23135;51.078;12.108;2022-12-07T07:16:10;16.55;;;7.47;;
37241;SDS011;23135;51.078;12.108;2022-12-07T07:18:36;16.35;;;9.23;;
37241;SDS011;23135;51.078;12.108;2022-12-07T07:21:01;16.63;;;8.70;;
37241;SDS011;23135;51.078;12.108;2022-12-07T07:23:28;16.38;;;8.13;;
37241;SDS011;23135;51.078;12.108;2022-12-07T07:25:54;11.30;;;6.57;;
37241;SDS011;23135;51.078;12.108;2022-12-07T07:28:19;14.25;;;6.93;;
37241;SDS011;23135;51.078;12.108;2022-12-07T07:30:45;14.00;;;7.78;;
37241;SDS011;23135;51.078;12.108;2022-12-07T07:33:11;13.65;;;7.32;;
37241;SDS011;23135;51.078;12.108;2022-12-07T07:35:37;18.02;;;8.95;;
37241;SDS011;23135;51.078;12.108;2022-12-07T07:38:04;20.77;;;8.68;;
37241;SDS011;23135;51.078;12.108;2022-12-07T07:40:30;14.32;;;7.10;;
37241;SDS011;23135;51.078;12.108;2022-12-07T07:42:56;13.98;;;7.05;;
37241;SDS011;23135;51.078;12.108;2022-12-07T07:45:22;17.55;;;7.88;;
37241;SDS011;23135;51.078;12.108;2022-12-07T07:47:50;18.90;;;9.20;;
37241;SDS011;23135;51.078;12.108;2022-12-07T07:50:16;14.65;;;7.93;;
37241;SDS011;23135;51.078;12.108;2022-12-07T07:52:42;15.27;;;8.18;;
37241;SDS011;23135;51.078;12.108;2022-12-07T07:55:08;17.00;;;7.60;;
37241;SDS011;23135;51.078;12.108;2022-12-07T07:57:35;13.25;;;6.50;;
37241;SDS011;23135;51.078;12.108;2022-12-07T08:00:06;19.20;;;8.88;;
37241;SDS011;23135;51.078;12.108;2022-12-07T08:04:59;15.32;;;6.97;;
37241;SDS011;23135;51.078;12.108;2022-12-07T08:07:26;16.27;;;7.60;;
37241;SDS011;23135;51.078;12.108;2022-12-07T08:09:52;17.95;;;7.70;;
37241;SDS011;23135;51.078;12.108;2022-12-07T08:12:18;14.18;;;7.60;;
37241;SDS011;23135;51.078;12.108;2022-12-07T08:14:43;14.88;;;6.90;;
37241;SDS011;23135;51.078;12.108;2022-12-07T08:17:09;18.15;;;7.32;;
37241;SDS011;23135;51.078;12.108;2022-12-07T08:19:34;14.88;;;7.70;;
37241;SDS011;23135;51.078;12.108;2022-12-07T08:22:00;17.45;;;8.68;;
37241;SDS011;23135;51.078;12.108;2022-12-07T08:24:26;14.27;;;7.18;;
37241;SDS011;23135;51.078;12.108;2022-12-07T08:26:52;14.35;;;5.95;;
37241;SDS011;23135;51.078;12.108;2022-12-07T08:29:17;11.00;;;6.22;;
37241;SDS011;23135;51.078;12.108;2022-12-07T08:31:44;11.23;;;6.20;;
37241;SDS011;23135;51.078;12.108;2022-12-07T08:34:10;12.05;;;6.53;;
37241;SDS011;23135;51.078;12.108;2022-12-07T08:36:36;10.25;;;5.68;;
37241;SDS011;23135;51.078;12.108;2022-12-07T08:39:02;11.18;;;5.80;;
37241;SDS011;23135;51.078;12.108;2022-12-07T08:41:28;12.00;;;5.75;;
37241;SDS011;23135;51.078;12.108;2022-12-07T08:43:54;13.63;;;5.15;;
37241;SDS011;23135;51.078;12.108;2022-12-07T08:51:16;11.18;;;6.47;;
37241;SDS011;23135;51.078;12.108;2022-12-07T08:53:42;8.00;;;4.78;;
37241;SDS011;23135;51.078;12.108;2022-12-07T08:56:09;12.40;;;5.43;;
37241;SDS011;23135;51.078;12.108;2022-12-07T08:58:35;12.27;;;5.75;;
37241;SDS011;23135;51.078;12.108;2022-12-07T09:01:03;11.88;;;7.03;;
37241;SDS011;23135;51.078;12.108;2022-12-07T09:03:29;14.05;;;4.85;;
37241;SDS011;23135;51.078;12.108;2022-12-07T09:05:56;13.10;;;7.50;;
37241;SDS011;23135;51.078;12.108;2022-12-07T09:08:22;12.15;;;5.15;;
37241;SDS011;23135;51.078;12.108;2022-12-07T09:10:54;11.98;;;5.70;;
37241;SDS011;23135;51.078;12.108;2022-12-07T09:13:20;10.73;;;5.07;;
37241;SDS011;23135;51.078;12.108;2022-12-07T09:15:46;10.20;;;4.32;;
37241;SDS011;23135;51.078;12.108;2022-12-07T09:18:11;11.07;;;6.32;;
37241;SDS011;23135;51.078;12.108;2022-12-07T09:20:37;10.93;;;5.35;;
37241;SDS011;23135;51.078;12.108;2022-12-07T09:23:04;12.93;;;5.78;;
37241;SDS011;23135;51.078;12.108;2022-12-07T09:25:31;13.93;;;4.68;;
37241;SDS011;23135;51.078;12.108;2022-12-07T09:27:58;7.63;;;3.55;;
37241;SDS011;23135;51.078;12.108;2022-12-07T09:30:24;11.95;;;4.78;;
37241;SDS011;23135;51.078;12.108;2022-12-07T09:32:52;12.38;;;6.22;;
37241;SDS011;23135;51.078;12.108;2022-12-07T09:35:19;13.50;;;6.35;;
37241;SDS011;23135;51.078;12.108;2022-12-07T09:37:44;13.82;;;6.13;;
37241;SDS011;23135;51.078;12.108;2022-12-07T09:40:10;11.05;;;6.00;;
37241;SDS011;23135;51.078;12.108;2022-12-07T09:42:38;10.55;;;5.43;;
37241;SDS011;23135;51.078;12.108;2022-12-07T09:45:10;9.57;;;5.43;;
37241;SDS011;23135;51.078;12.108;2022-12-07T09:47:39;10.90;;;5.20;;
37241;SDS011;23135;51.078;12.108;2022-12-07T09:50:06;11.60;;;5.60;;
37241;SDS011;23135;51.078;12.108;2022-12-07T09:52:37;12.48;;;5.40;;
37241;SDS011;23135;51.078;12.108;2022-12-07T09:55:08;7.50;;;3.58;;
37241;SDS011;23135;51.078;12.108;2022-12-07T10:00:03;9.95;;;3.92;;
37241;SDS011;23135;51.078;12.108;2022-12-07T10:02:36;9.60;;;4.95;;
37241;SDS011;23135;51.078;12.108;2022-12-07T10:05:06;10.80;;;4.45;;
37241;SDS011;23135;51.078;12.108;2022-12-07T10:07:32;8.75;;;4.03;;
37241;SDS011;23135;51.078;12.108;2022-12-07T10:09:58;5.72;;;3.20;;
37241;SDS011;23135;51.078;12.108;2022-12-07T10:12:23;7.60;;;3.33;;
37241;SDS011;23135;51.078;12.108;2022-12-07T10:14:53;13.07;;;3.13;;
37241;SDS011;23135;51.078;12.108;2022-12-07T10:17:40;4.68;;;2.08;;
37241;SDS011;23135;51.078;12.108;2022-12-07T10:20:19;5.43;;;2.38;;
37241;SDS011;23135;51.078;12.108;2022-12-07T10:25:31;7.28;;;2.92;;
37241;SDS011;23135;51.078;12.108;2022-12-07T10:30:33;4.35;;;2.13;;
37241;SDS011;23135;51.078;12.108;2022-12-07T10:36:33;5.35;;;2.80;;
37241;SDS011;23135;51.078;12.108;2022-12-07T10:41:53;7.53;;;3.75;;
37241;SDS011;23135;51.078;12.108;2022-12-07T10:44:25;6.88;;;2.92;;
37241;SDS011;23135;51.078;12.108;2022-12-07T10:47:35;10.48;;;3.08;;
37241;SDS011;23135;51.078;12.108;2022-12-07T10:52:43;14.93;;;3.58;;
37241;SDS011;23135;51.078;12.108;2022-12-07T10:55:27;7.00;;;2.33;;
37241;SDS011;23135;51.078;12.108;2022-12-07T10:58:08;5.45;;;2.50;;
37241;SDS011;23135;51.078;12.108;2022-12-07T11:01:13;6.95;;;2.20;;
37241;SDS011;23135;51.078;12.108;2022-12-07T11:12:05;5.97;;;2.10;;
37241;SDS011;23135;51.078;12.108;2022-12-07T11:29:07;2.63;;;0.95;;
37241;SDS011;23135;51.078;12.108;2022-12-07T11:34:25;2.63;;;0.93;;
37241;SDS011;23135;51.078;12.108;2022-12-07T11:37:07;6.30;;;1.55;;
37241;SDS011;23135;51.078;12.108;2022-12-07T11:39:46;5.78;;;1.55;;
37241;SDS011;23135;51.078;12.108;2022-12-07T11:44:49;3.53;;;1.30;;
37241;SDS011;23135;51.078;12.108;2022-12-07T11:53:09;7.27;;;1.63;;
37241;SDS011;23135;51.078;12.108;2022-12-07T11:58:38;5.10;;;0.70;;
37241;SDS011;23135;51.078;12.108;2022-12-07T12:01:14;3.85;;;0.47;;
37241;SDS011;23135;51.078;12.108;2022-12-07T12:06:37;3.85;;;1.05;;
37241;SDS011;23135;51.078;12.108;2022-12-07T12:20:37;2.33;;;0.45;;
37241;SDS011;23135;51.078;12.108;2022-12-07T12:23:15;2.90;;;0.63;;
37241;SDS011;23135;51.078;12.108;2022-12-07T12:25:43;3.20;;;0.22;;
37241;SDS011;23135;51.078;12.108;2022-12-07T12:28:31;1.20;;;0.13;;
37241;SDS011;23135;51.078;12.108;2022-12-07T12:31:30;3.45;;;0.32;;
37241;SDS011;23135;51.078;12.108;2022-12-07T12:34:01;4.60;;;0.50;;
37241;SDS011;23135;51.078;12.108;2022-12-07T12:47:03;6.38;;;0.10;;
37241;SDS011;23135;51.078;12.108;2022-12-07T12:52:50;2.50;;;0.55;;
37241;SDS011;23135;51.078;12.108;2022-12-07T12:55:20;5.28;;;1.67;;
37241;SDS011;23135;51.078;12.108;2022-12-07T12:58:39;4.28;;;1.05;;
37241;SDS011;23135;51.078;12.108;2022-12-07T13:00:42;1.50;;;0.40;;
37241;SDS011;23135;51.078;12.108;2022-12-07T13:03:16;5.80;;;0.28;;
37241;SDS011;23135;51.078;12.108;2022-12-07T13:09:00;2.55;;;0.70;;
37241;SDS011;23135;51.078;12.108;2022-12-07T13:11:31;5.43;;;0.35;;
37241;SDS011;23135;51.078;12.108;2022-12-07T13:17:12;2.53;;;0.13;;
37241;SDS011;23135;51.078;12.108;2022-12-07T13:20:04;0.30;;;0.10;;
37241;SDS011;23135;51.078;12.108;2022-12-07T13:28:20;2.78;;;0.75;;
37241;SDS011;23135;51.078;12.108;2022-12-07T13:31:04;0.73;;;0.22;;
37241;SDS011;23135;51.078;12.108;2022-12-07T13:33:46;2.33;;;0.10;;
37241;SDS011;23135;51.078;12.108;2022-12-07T13:36:22;3.25;;;0.45;;
37241;SDS011;23135;51.078;12.108;2022-12-07T13:38:49;1.80;;;0.35;;
37241;SDS011;23135;51.078;12.108;2022-12-07T13:41:18;1.88;;;0.25;;
37241;SDS011;23135;51.078;12.108;2022-12-07T13:49:13;4.10;;;0.20;;
37241;SDS011;23135;51.078;12.108;2022-12-07T13:51:46;1.67;;;0.10;;
37241;SDS011;23135;51.078;12.108;2022-12-07T13:54:13;2.03;;;0.10;;
37241;SDS011;23135;51.078;12.108;2022-12-07T13:56:39;4.75;;;0.65;;
37241;SDS011;23135;51.078;12.108;2022-12-07T13:59:05;2.65;;;0.10;;
37241;SDS011;23135;51.078;12.108;2022-12-07T14:02:02;2.63;;;0.20;;
37241;SDS011;23135;51.078;12.108;2022-12-07T14:04:42;0.70;;;0.10;;
37241;SDS011;23135;51.078;12.108;2022-12-07T14:07:24;2.78;;;0.05;;
37241;SDS011;23135;51.078;12.108;2022-12-07T14:12:23;3.80;;;0.10;;
37241;SDS011;23135;51.078;12.108;2022-12-07T14:14:50;1.60;;;0.03;;
37241;SDS011;23135;51.078;12.108;2022-12-07T14:17:19;0.73;;;0.10;;
37241;SDS011;23135;51.078;12.108;2022-12-07T14:19:56;5.30;;;0.10;;
37241;SDS011;23135;51.078;12.108;2022-12-07T14:22:34;0.10;;;0.00;;
37241;SDS011;23135;51.078;12.108;2022-12-07T14:27:39;1.00;;;0.00;;
37241;SDS011;23135;51.078;12.108;2022-12-07T14:30:15;2.25;;;0.10;;
37241;SDS011;23135;51.078;12.108;2022-12-07T14:32:43;2.28;;;0.00;;
37241;SDS011;23135;51.078;12.108;2022-12-07T14:35:13;1.00;;;0.10;;
37241;SDS011;23135;51.078;12.108;2022-12-07T14:37:42;6.40;;;0.20;;
37241;SDS011;23135;51.078;12.108;2022-12-07T14:40:12;1.38;;;0.20;;
37241;SDS011;23135;51.078;12.108;2022-12-07T14:42:39;4.85;;;0.25;;
37241;SDS011;23135;51.078;12.108;2022-12-07T14:45:10;1.45;;;0.40;;
37241;SDS011;23135;51.078;12.108;2022-12-07T14:47:39;0.88;;;0.00;;
37241;SDS011;23135;51.078;12.108;2022-12-07T14:50:05;2.35;;;0.17;;
37241;SDS011;23135;51.078;12.108;2022-12-07T14:52:31;1.05;;;0.13;;
37241;SDS011;23135;51.078;12.108;2022-12-07T14:54:57;0.35;;;0.00;;
37241;SDS011;23135;51.078;12.108;2022-12-07T14:57:22;7.22;;;0.10;;
37241;SDS011;23135;51.078;12.108;2022-12-07T14:59:48;1.38;;;0.20;;
37241;SDS011;23135;51.078;12.108;2022-12-07T15:02:14;1.65;;;0.20;;
37241;SDS011;23135;51.078;12.108;2022-12-07T15:04:40;4.68;;;0.32;;
37241;SDS011;23135;51.078;12.108;2022-12-07T15:07:09;1.25;;;0.10;;
37241;SDS011;23135;51.078;12.108;2022-12-07T15:09:39;1.20;;;0.00;;
37241;SDS011;23135;51.078;12.108;2022-12-07T15:12:05;0.38;;;0.20;;
37241;SDS011;23135;51.078;12.108;2022-12-07T15:14:31;8.02;;;1.65;;
37241;SDS011;23135;51.078;12.108;2022-12-07T15:16:56;1.15;;;0.22;;
37241;SDS011;23135;51.078;12.108;2022-12-07T15:19:23;3.22;;;0.08;;
37241;SDS011;23135;51.078;12.108;2022-12-07T15:21:51;7.72;;;0.50;;
37241;SDS011;23135;51.078;12.108;2022-12-07T15:24:17;1.98;;;0.10;;
37241;SDS011;23135;51.078;12.108;2022-12-07T15:26:43;1.33;;;0.20;;
37241;SDS011;23135;51.078;12.108;2022-12-07T15:29:09;1.95;;;0.30;;
37241;SDS011;23135;51.078;12.108;2022-12-07T15:31:35;1.55;;;0.10;;
37241;SDS011;23135;51.078;12.108;2022-12-07T15:34:02;2.72;;;1.30;;
37241;SDS011;23135;51.078;12.108;2022-12-07T15:36:28;2.17;;;0.20;;
37241;SDS011;23135;51.078;12.108;2022-12-07T15:38:55;1.73;;;0.10;;
37241;SDS011;23135;51.078;12.108;2022-12-07T15:41:21;0.20;;;0.00;;
37241;SDS011;23135;51.078;12.108;2022-12-07T15:43:47;5.05;;;0.95;;
37241;SDS011;23135;51.078;12.108;2022-12-07T15:46:32;3.50;;;0.30;;
37241;SDS011;23135;51.078;12.108;2022-12-07T15:49:00;4.78;;;0.13;;
37241;SDS011;23135;51.078;12.108;2022-12-07T15:51:26;0.63;;;0.00;;
37241;SDS011;23135;51.078;12.108;2022-12-07T15:53:52;2.10;;;0.00;;
37241;SDS011;23135;51.078;12.108;2022-12-07T15:56:18;2.60;;;0.65;;
37241;SDS011;23135;51.078;12.108;2022-12-07T15:58:45;0.20;;;0.10;;
37241;SDS011;23135;51.078;12.108;2022-12-07T16:01:14;3.30;;;0.30;;
37241;SDS011;23135;51.078;12.108;2022-12-07T16:03:45;4.03;;;0.20;;
37241;SDS011;23135;51.078;12.108;2022-12-07T16:06:11;5.53;;;0.08;;
37241;SDS011;23135;51.078;12.108;2022-12-07T16:08:41;3.20;;;0.10;;
37241;SDS011;23135;51.078;12.108;2022-12-07T16:11:11;2.75;;;0.20;;
37241;SDS011;23135;51.078;12.108;2022-12-07T16:13:37;0.93;;;0.30;;
37241;SDS011;23135;51.078;12.108;2022-12-07T16:16:08;1.83;;;0.10;;
37241;SDS011;23135;51.078;12.108;2022-12-07T16:18:38;0.40;;;0.00;;
37241;SDS011;23135;51.078;12.108;2022-12-07T16:21:04;0.10;;;0.00;;
37241;SDS011;23135;51.078;12.108;2022-12-07T16:23:30;14.00;;;0.40;;
37241;SDS011;23135;51.078;12.108;2022-12-07T16:26:03;1.60;;;0.10;;
37241;SDS011;23135;51.078;12.108;2022-12-07T16:28:33;0.80;;;0.00;;
37241;SDS011;23135;51.078;12.108;2022-12-07T16:31:18;7.78;;;0.40;;
37241;SDS011;23135;51.078;12.108;2022-12-07T16:33:46;2.15;;;0.20;;
37241;SDS011;23135;51.078;12.108;2022-12-07T16:36:12;1.50;;;0.17;;
37241;SDS011;23135;51.078;12.108;2022-12-07T16:38:40;0.30;;;0.20;;
37241;SDS011;23135;51.078;12.108;2022-12-07T16:41:07;1.23;;;0.57;;
37241;SDS011;23135;51.078;12.108;2022-12-07T16:43:33;4.95;;;0.22;;
37241;SDS011;23135;51.078;12.108;2022-12-07T16:45:59;2.80;;;0.10;;
37241;SDS011;23135;51.078;12.108;2022-12-07T16:48:25;0.45;;;0.10;;
37241;SDS011;23135;51.078;12.108;2022-12-07T16:50:51;2.70;;;0.20;;
37241;SDS011;23135;51.078;12.108;2022-12-07T16:53:19;4.25;;;0.10;;
37241;SDS011;23135;51.078;12.108;2022-12-07T16:55:46;2.13;;;0.10;;
37241;SDS011;23135;51.078;12.108;2022-12-07T16:58:12;1.85;;;0.15;;
37241;SDS011;23135;51.078;12.108;2022-12-07T17:00:39;4.22;;;0.08;;